Terminal Aerodrome Forecast
Issued by NWS

Home | Current Version | Previous Version | Text Only | Print | Product List | Glossary On
Versions: 1 2 3 4 5 6 7 8 9 10 11 12 13 14 15
614
FTUS43 KOAX 291744
TAFSNY
TAF
KSNY 291744Z 2918/3018 20007KT P6SM SCT100
     FM300100 18014KT 4SM -TSRA BKN100CB
     FM300300 20010KT P6SM SCT050 BKN100=

USA.gov is the U.S. government's official web portal to all federal, state and local government web resources and services.